| time (UTC) | temp F | wind direction | speed MPH | gust MPH | rain 1hr in | rain 24hr in | rain mn in | humidity % | barometer mb |
| 20260901164540 | 74 | 257 | 2.0 | 3.0 | 0.00 | 0.26 | 0.00 | 92 | 1013.2 |
| 20260901163046 | 74 | 242 | 3.0 | 4.0 | 0.00 | 0.26 | 0.00 | 93 | 1013.2 |
| 20260901161536 | 74 | 248 | 2.0 | 3.0 | 0.00 | 0.26 | 0.00 | 93 | 1013.4 |
| 20260901160038 | 74 | 248 | 3.0 | 4.0 | 0.00 | 0.26 | 0.00 | 93 | 1013.4 |
| 20260901154552 | 73 | 239 | 4.0 | 6.0 | 0.00 | 0.39 | 0.00 | 93 | 1013.2 |
| 20260901153040 | 73 | 239 | 5.0 | 6.0 | 0.00 | 0.39 | 0.00 | 93 | 1013.2 |
| 20260901151524 | 73 | 242 | 5.0 | 7.0 | 0.00 | 0.39 | 0.00 | 93 | 1013.3 |
| 20260901150021 | 73 | 238 | 5.0 | 6.0 | 0.00 | 0.39 | 0.00 | 93 | 1013.2 |
| 20260901144516 | 73 | 242 | 5.0 | 6.0 | 0.00 | 0.39 | 0.00 | 93 | 1013.1 |
| 20260901143011 | 73 | 245 | 4.0 | 5.0 | 0.00 | 0.39 | 0.00 | 93 | 1013.0 |
| 20260901141610 | 73 | 242 | 4.0 | 5.0 | 0.00 | 0.39 | 0.00 | 93 | 1013.0 |
| 20260901140005 | 73 | 253 | 3.0 | 6.0 | 0.00 | 0.39 | 0.00 | 93 | 1013.1 |
| 20260901134600 | 73 | 242 | 5.0 | 7.0 | 0.00 | 0.39 | 0.00 | 92 | 1012.9 |
| 20260901133055 | 73 | 246 | 6.0 | 8.0 | 0.00 | 0.39 | 0.00 | 92 | 1013.0 |
| 20260901131550 | 73 | 238 | 5.0 | 9.0 | 0.00 | 0.39 | 0.00 | 93 | 1013.0 |
| 20260901130046 | 73 | 243 | 4.0 | 9.0 | 0.00 | 0.39 | 0.00 | 93 | 1013.1 |
| 20260901124547 | 73 | 207 | 5.0 | 9.0 | 0.00 | 0.42 | 0.00 | 93 | 1013.2 |
| 20260901123041 | 72 | 239 | 4.0 | 7.0 | 0.00 | 0.42 | 0.00 | 93 | 1013.2 |
| 20260901121540 | 72 | 191 | 1.0 | 6.0 | 0.00 | 0.42 | 0.00 | 92 | 1013.0 |
| 20260901120037 | 72 | 215 | 3.0 | 6.0 | 0.00 | 0.42 | 0.00 | 93 | 1012.8 |
| 20260901114535 | 72 | 233 | 3.0 | 6.0 | 0.00 | 0.46 | 0.00 | 93 | 1012.7 |
| 20260901113042 | 72 | 222 | 2.0 | 5.0 | 0.00 | 0.46 | 0.00 | 93 | 1012.5 |
| 20260901111533 | 72 | 231 | 4.0 | 7.0 | 0.00 | 0.46 | 0.00 | 93 | 1012.4 |
| 20260901110032 | 72 | 245 | 6.0 | 8.0 | 0.00 | 0.46 | 0.00 | 93 | 1012.3 |
| 20260901104529 | 72 | 236 | 4.0 | 8.0 | 0.00 | 0.78 | 0.00 | 93 | 1012.1 |
| 20260901103032 | 72 | 232 | 3.0 | 7.0 | 0.00 | 0.78 | 0.00 | 93 | 1012.0 |
| 20260901101526 | 72 | 248 | 5.0 | 9.0 | 0.00 | 0.78 | 0.00 | 93 | 1012.0 |
| 20260901100025 | 72 | 248 | 10.0 | 13.0 | 0.00 | 0.78 | 0.00 | 93 | 1012.0 |
| 20260901094526 | 72 | 248 | 7.0 | 8.0 | 0.00 | 0.82 | 0.00 | 93 | 1011.9 |
| 20260901093028 | 72 | 245 | 6.0 | 10.0 | 0.00 | 0.82 | 0.00 | 93 | 1011.9 |
| 20260901091522 | 72 | 240 | 7.0 | 12.0 | 0.00 | 0.82 | 0.00 | 93 | 1011.9 |
| 20260901090020 | 73 | 233 | 6.0 | 10.0 | 0.00 | 0.82 | 0.00 | 91 | 1011.8 |
| 20260901084516 | 73 | 252 | 6.0 | 8.0 | 0.00 | 0.82 | 0.00 | 91 | 1011.7 |
| 20260901083012 | 74 | 232 | 5.0 | 8.0 | 0.00 | 0.82 | 0.00 | 91 | 1011.7 |
| 20260901081507 | 74 | 239 | 5.0 | 9.0 | 0.00 | 0.82 | 0.00 | 90 | 1011.5 |
| 20260901080003 | 74 | 236 | 7.0 | 11.0 | 0.00 | 0.82 | 0.00 | 90 | 1011.5 |
| 20260901074558 | 73 | 232 | 7.0 | 12.0 | 0.00 | 0.83 | 0.00 | 92 | 1011.7 |
| 20260901073055 | 71 | 250 | 1.0 | 7.0 | 0.00 | 0.83 | 0.00 | 93 | 1011.6 |
| 20260901071551 | 70 | 146 | 1.0 | 7.0 | 0.00 | 0.83 | 0.00 | 93 | 1011.6 |
| 20260901070052 | 70 | 181 | 0.0 | 2.0 | 0.00 | 0.83 | 0.00 | 93 | 1011.4 |
| 20260901064551 | 70 | 155 | 1.0 | 5.0 | 0.00 | 0.84 | 0.00 | 92 | 1011.6 |
| 20260901063054 | 70 | 141 | 0.0 | 3.0 | 0.00 | 0.84 | 0.00 | 93 | 1011.7 |
| 20260901061546 | 70 | 134 | 1.0 | 3.0 | 0.00 | 0.84 | 0.00 | 93 | 1012.0 |
| 20260901060045 | 70 | 149 | 0.0 | 2.0 | 0.00 | 0.84 | 0.00 | 93 | 1011.9 |
| 20260901054542 | 69 | 198 | 1.0 | 3.0 | 0.00 | 0.84 | 0.00 | 90 | 1012.3 |
| 20260901053040 | 69 | 125 | 0.0 | 2.0 | 0.00 | 0.84 | 0.00 | 88 | 1012.3 |
| 20260901051541 | 69 | 146 | 0.0 | 2.0 | 0.00 | 0.84 | 0.00 | 88 | 1012.5 |
| 20260901050038 | 69 | 150 | 0.0 | 1.0 | 0.00 | 0.84 | 0.00 | 87 | 1012.5 |
| 20260901044538 | 69 | 149 | 0.0 | 2.0 | 0.00 | 0.84 | 0.00 | 86 | 1012.3 |
| 20260901043037 | 69 | 146 | 1.0 | 2.0 | 0.00 | 0.84 | 0.00 | 85 | 1012.4 |
| 20260901041535 | 69 | 131 | 0.0 | 2.0 | 0.00 | 0.84 | 0.00 | 84 | 1012.4 |
| 20260901040032 | 70 | 153 | 0.0 | 2.0 | 0.00 | 0.84 | 0.00 | 84 | 1012.6 |
| 20260901034538 | 70 | 129 | 0.0 | 2.0 | 0.00 | 0.84 | 0.84 | 84 | 1012.7 |
| 20260901033030 | 70 | 259 | 0.0 | 1.0 | 0.00 | 0.84 | 0.84 | 84 | 1012.8 |
| 20260901031536 | 70 | 259 | 0.0 | 1.0 | 0.00 | 0.84 | 0.84 | 83 | 1013.0 |
| 20260901030028 | 70 | 260 | 0.0 | 1.0 | 0.00 | 0.84 | 0.84 | 83 | 1013.0 |
| 20260901024528 | 70 | 149 | 0.0 | 1.0 | 0.00 | 0.84 | 0.84 | 83 | 1013.2 |
| 20260901023028 | 70 | 155 | 0.0 | 1.0 | 0.00 | 0.84 | 0.84 | 83 | 1013.1 |
| 20260901021529 | 70 | 155 | 1.0 | 4.0 | 0.00 | 0.84 | 0.84 | 84 | 1012.9 |
| 20260901020027 | 71 | 152 | 0.0 | 2.0 | 0.00 | 0.84 | 0.84 | 85 | 1012.7 |
| 20260901014526 | 71 | 195 | 0.0 | 3.0 | 0.00 | 0.84 | 0.84 | 85 | 1012.8 |
| 20260901013026 | 71 | 146 | 0.0 | 2.0 | 0.00 | 0.84 | 0.84 | 85 | 1012.8 |
| 20260901011525 | 71 | 187 | 0.0 | 2.0 | 0.00 | 0.84 | 0.84 | 84 | 1012.7 |
| 20260901010036 | 71 | 153 | 0.0 | 3.0 | 0.00 | 0.84 | 0.84 | 84 | 1012.8 |
| 20260901004523 | 71 | 240 | 0.0 | 3.0 | 0.00 | 1.02 | 0.84 | 86 | 1012.7 |
| 20260901003023 | 72 | 166 | 0.0 | 3.0 | 0.00 | 1.02 | 0.84 | 88 | 1012.7 |
| 20260901001522 | 72 | 140 | 0.0 | 5.0 | 0.00 | 1.02 | 0.84 | 89 | 1012.9 |
| 20260901000027 | 72 | 172 | 0.0 | 5.0 | 0.00 | 1.02 | 0.84 | 91 | 1013.1 |
| 20260831234519 | 72 | 205 | 0.0 | 1.0 | 0.00 | 1.15 | 0.84 | 92 | 1013.3 |
| 20260831233017 | 73 | 245 | 0.0 | 4.0 | 0.00 | 1.15 | 0.84 | 92 | 1013.3 |
| 20260831231517 | 73 | 233 | 0.0 | 2.0 | 0.00 | 1.15 | 0.84 | 92 | 1013.5 |
| 20260831230015 | 73 | 187 | 0.0 | 3.0 | 0.00 | 1.15 | 0.84 | 91 | 1013.7 |
| 20260831224515 | 73 | 257 | 1.0 | 2.0 | 0.00 | 1.19 | 0.84 | 91 | 1013.7 |
| 20260831223020 | 73 | 122 | 0.0 | 3.0 | 0.00 | 1.19 | 0.84 | 91 | 1013.7 |
| 20260831221519 | 73 | 149 | 1.0 | 4.0 | 0.00 | 1.19 | 0.84 | 91 | 1013.5 |
| 20260831220013 | 74 | 260 | 0.0 | 2.0 | 0.00 | 1.19 | 0.84 | 92 | 1014.0 |
| 20260831214513 | 74 | 133 | 0.0 | 3.0 | 0.00 | 1.24 | 0.84 | 92 | 1013.7 |
| 20260831213012 | 74 | 208 | 0.0 | 1.0 | 0.00 | 1.24 | 0.84 | 93 | 1013.7 |
| 20260831211512 | 75 | 143 | 0.0 | 1.0 | 0.00 | 1.24 | 0.84 | 93 | 1013.8 |
| 20260831210026 | 76 | 181 | 0.0 | 5.0 | 0.00 | 1.24 | 0.84 | 92 | 1013.8 |
| 20260831204509 | 75 | 118 | 0.0 | 4.0 | 0.00 | 1.34 | 0.84 | 90 | 1013.6 |
| 20260831203004 | 73 | 133 | 0.0 | 3.0 | 0.00 | 1.34 | 0.84 | 76 | 1013.5 |
| 20260831201502 | 72 | 138 | 0.0 | 2.0 | 0.00 | 1.34 | 0.84 | 84 | 1014.1 |
| 20260831200001 | 72 | 141 | 0.0 | 1.0 | 0.01 | 1.34 | 0.84 | 85 | 1014.4 |
| 20260831194501 | 72 | 146 | 0.0 | 1.0 | 0.02 | 1.50 | 0.84 | 86 | 1014.5 |
| 20260831193131 | 72 | 250 | 0.0 | 1.0 | 0.06 | 1.50 | 0.84 | 85 | 1014.3 |
| 20260831191559 | 71 | 173 | 0.0 | 1.0 | 0.07 | 1.50 | 0.84 | 84 | 1015.0 |
| 20260831190058 | 71 | 143 | 0.0 | 1.0 | 0.06 | 1.49 | 0.83 | 89 | 1014.3 |
| 20260831184556 | 71 | 143 | 0.0 | 1.0 | 0.06 | 1.54 | 0.83 | 91 | 1015.3 |
| 20260831183101 | 71 | 205 | 0.0 | 3.0 | 0.02 | 1.50 | 0.79 | 93 | 1016.1 |
| 20260831181608 | 71 | 197 | 0.0 | 1.0 | 0.00 | 1.49 | 0.77 | 93 | 1015.8 |
| 20260831180052 | 71 | 239 | 1.0 | 3.0 | 0.01 | 1.49 | 0.77 | 93 | 1016.0 |
| 20260831174551 | 71 | 253 | 2.0 | 3.0 | 0.02 | 1.65 | 0.77 | 93 | 1016.0 |
| 20260831173051 | 70 | 236 | 0.0 | 1.0 | 0.04 | 1.65 | 0.77 | 91 | 1015.8 |
| 20260831171550 | 70 | 222 | 0.0 | 3.0 | 0.12 | 1.65 | 0.77 | 91 | 1016.0 |
| 20260831170049 | 69 | 250 | 3.0 | 5.0 | 0.17 | 1.65 | 0.76 | 92 | 1016.2 |